createdAt,value
2023-04-18T00:01:57.183Z,89.78
2023-04-18T00:04:24.134Z,91.00
2023-04-18T00:06:51.541Z,92.28
2023-04-18T00:09:18.321Z,89.65
2023-04-18T00:11:45.497Z,89.51
2023-04-18T00:14:12.311Z,89.02
2023-04-18T00:16:39.392Z,88.11
2023-04-18T00:19:06.331Z,88.37
2023-04-18T00:21:33.218Z,88.34
2023-04-18T00:23:59.930Z,89.89
2023-04-18T00:26:27.862Z,89.60
2023-04-18T00:28:54.512Z,90.29
2023-04-18T00:31:21.220Z,90.28
2023-04-18T00:33:47.946Z,89.76
2023-04-18T00:36:14.640Z,89.89
2023-04-18T00:38:41.254Z,89.73
2023-04-18T00:41:07.873Z,89.64
2023-04-18T00:43:35.301Z,89.46
2023-04-18T00:46:02.105Z,89.88
2023-04-18T00:48:30.160Z,89.79
2023-04-18T00:50:57.479Z,88.72
2023-04-18T00:53:24.296Z,89.12
2023-04-18T00:55:51.416Z,88.96
2023-04-18T00:58:18.170Z,88.86
2023-04-18T01:00:44.826Z,89.10
2023-04-18T01:03:14.617Z,89.47
2023-04-18T01:05:41.535Z,89.34
2023-04-18T01:08:08.424Z,89.48
2023-04-18T01:10:36.114Z,89.64
2023-04-18T01:13:16.808Z,89.93
2023-04-18T01:18:19.297Z,91.34
2023-04-18T01:20:48.354Z,91.34
2023-04-18T01:23:16.173Z,92.22
2023-04-18T01:25:43.790Z,91.54
2023-04-18T01:28:12.235Z,91.26
2023-04-18T01:30:38.934Z,91.37
2023-04-18T01:33:05.850Z,90.74
2023-04-18T01:35:33.636Z,91.39
2023-04-18T01:38:00.756Z,91.65
2023-04-18T01:40:27.561Z,90.90
2023-04-18T01:42:54.268Z,92.54
2023-04-18T01:45:21.077Z,91.75
2023-04-18T01:47:47.914Z,91.45
2023-04-18T01:50:14.677Z,91.20
2023-04-18T01:52:41.631Z,91.62
2023-04-18T01:55:08.678Z,92.53
2023-04-18T02:00:11.320Z,93.12
2023-04-18T02:02:38.127Z,93.27
2023-04-18T02:05:05.123Z,93.64
2023-04-18T02:07:31.743Z,93.39
2023-04-18T02:09:58.342Z,93.32
2023-04-18T02:12:24.993Z,94.22
2023-04-18T02:14:53.702Z,94.06
2023-04-18T02:17:23.563Z,94.54
2023-04-18T02:19:51.571Z,95.04
2023-04-18T02:22:18.877Z,95.21
2023-04-18T02:24:45.695Z,94.84
2023-04-18T02:30:39.958Z,94.69
2023-04-18T02:33:06.740Z,94.89
2023-04-18T02:35:35.429Z,95.52
2023-04-18T02:38:02.189Z,95.94
2023-04-18T02:40:28.911Z,96.08
2023-04-18T02:42:55.538Z,96.24
2023-04-18T02:45:22.173Z,95.91
2023-04-18T02:47:55.612Z,95.46
2023-04-18T02:50:24.044Z,95.27
2023-04-18T02:52:50.719Z,95.41
2023-04-18T02:55:17.569Z,94.99
2023-04-18T02:57:44.192Z,95.41
2023-04-18T03:00:11.659Z,94.91
2023-04-18T03:02:38.342Z,95.29
2023-04-18T03:05:06.319Z,95.57
2023-04-18T03:07:33.045Z,95.33
2023-04-18T03:10:00.179Z,95.38
2023-04-18T03:12:26.805Z,95.47
2023-04-18T03:14:53.453Z,95.86
2023-04-18T03:17:20.127Z,95.39
2023-04-18T03:19:46.829Z,95.87
2023-04-18T03:22:14.332Z,95.82
2023-04-18T03:24:41.114Z,96.74
2023-04-18T03:27:07.956Z,96.49
2023-04-18T03:29:34.783Z,96.29
2023-04-18T03:32:01.498Z,96.29
2023-04-18T03:34:28.603Z,96.30
2023-04-18T03:36:55.329Z,96.71
2023-04-18T03:39:22.012Z,96.45
2023-04-18T03:41:49.586Z,97.00
2023-04-18T03:44:16.860Z,97.30
2023-04-18T03:46:44.086Z,97.13
2023-04-18T03:49:10.861Z,96.66
2023-04-18T03:51:49.702Z,96.25
2023-04-18T03:54:16.932Z,96.12
2023-04-18T03:56:43.991Z,95.88
2023-04-18T03:59:11.097Z,95.41
2023-04-18T04:01:38.453Z,95.26
2023-04-18T04:04:06.115Z,96.17
2023-04-18T04:06:33.135Z,95.90
2023-04-18T04:08:59.819Z,95.49
2023-04-18T04:11:27.040Z,95.25
2023-04-18T04:13:53.721Z,95.14
2023-04-18T04:16:20.468Z,94.60
2023-04-18T04:18:47.282Z,94.44
2023-04-18T04:21:13.964Z,94.84
2023-04-18T04:23:42.644Z,95.43
2023-04-18T04:26:09.773Z,94.29
2023-04-18T04:28:36.446Z,94.34
2023-04-18T04:31:07.093Z,93.68
2023-04-18T04:33:35.999Z,94.74
2023-04-18T04:36:02.692Z,94.45
2023-04-18T04:38:31.275Z,94.44
2023-04-18T04:40:58.640Z,93.96
2023-04-18T04:43:26.247Z,93.29
2023-04-18T04:45:53.357Z,90.98
2023-04-18T04:48:22.325Z,91.24
2023-04-18T04:50:53.232Z,91.29
2023-04-18T04:53:19.999Z,91.83
2023-04-18T04:58:20.283Z,91.20
2023-04-18T05:00:47.373Z,93.32
2023-04-18T05:03:14.266Z,91.57
2023-04-18T05:05:41.057Z,91.00
2023-04-18T05:08:07.811Z,91.23
2023-04-18T05:10:37.297Z,92.62
2023-04-18T05:13:04.483Z,92.06
2023-04-18T05:15:31.967Z,92.16
2023-04-18T05:17:58.869Z,92.06
2023-04-18T05:20:25.774Z,91.83
2023-04-18T05:22:52.521Z,91.33
2023-04-18T05:25:19.816Z,92.18
2023-04-18T05:27:47.282Z,91.63
2023-04-18T05:30:14.199Z,91.25
2023-04-18T05:32:41.073Z,89.77
2023-04-18T05:35:08.686Z,90.84
2023-04-18T05:37:35.498Z,90.80
2023-04-18T05:40:02.129Z,91.26
2023-04-18T05:42:28.806Z,90.61
2023-04-18T05:44:55.582Z,90.73
2023-04-18T05:47:24.304Z,91.62
2023-04-18T05:49:51.258Z,92.31
2023-04-18T05:52:17.889Z,92.06
2023-04-18T05:54:44.605Z,92.21
2023-04-18T05:57:11.323Z,92.19
2023-04-18T05:59:37.999Z,91.44
2023-04-18T06:02:04.785Z,90.60
2023-04-18T06:07:10.029Z,92.35
2023-04-18T06:09:36.705Z,91.83
2023-04-18T06:12:03.643Z,91.79
2023-04-18T06:14:30.379Z,91.94
2023-04-18T06:16:57.170Z,90.00
2023-04-18T06:19:23.858Z,90.41
2023-04-18T06:21:50.963Z,90.71
2023-04-18T06:24:17.793Z,90.77
2023-04-18T06:26:44.509Z,90.69
2023-04-18T06:29:12.650Z,90.89
2023-04-18T06:31:39.441Z,89.75
2023-04-18T06:34:06.712Z,89.63
2023-04-18T06:36:33.637Z,90.01
2023-04-18T06:39:00.360Z,89.17
2023-04-18T06:41:26.999Z,88.57
2023-04-18T06:44:03.599Z,87.92
2023-04-18T06:46:32.191Z,87.42
2023-04-18T06:48:59.281Z,87.26
2023-04-18T06:51:25.962Z,86.54
2023-04-18T06:53:55.124Z,87.40
2023-04-18T06:56:21.831Z,86.48
2023-04-18T06:58:49.576Z,86.07
2023-04-18T07:01:16.292Z,87.22
2023-04-18T07:03:43.013Z,86.40
2023-04-18T07:06:10.866Z,86.39
2023-04-18T07:08:38.096Z,88.02
2023-04-18T07:13:43.805Z,87.97
2023-04-18T07:16:10.509Z,87.54
2023-04-18T07:18:38.320Z,88.23
2023-04-18T07:21:07.968Z,87.23
2023-04-18T07:23:35.439Z,87.39
2023-04-18T07:26:03.259Z,86.71
2023-04-18T07:28:31.881Z,87.00
2023-04-18T07:30:58.989Z,85.61
2023-04-18T07:33:25.880Z,85.76
2023-04-18T07:35:53.332Z,86.57
2023-04-18T07:38:20.241Z,87.05
2023-04-18T07:40:46.889Z,86.29
2023-04-18T07:43:13.520Z,86.53
2023-04-18T07:45:43.419Z,87.50
2023-04-18T07:48:10.171Z,88.10
2023-04-18T07:50:36.858Z,86.94
2023-04-18T07:53:03.771Z,86.71
2023-04-18T07:55:30.896Z,85.39
2023-04-18T07:57:57.526Z,85.94
2023-04-18T08:00:24.691Z,84.61
2023-04-18T08:02:51.549Z,84.32
2023-04-18T08:05:21.315Z,82.59
2023-04-18T08:07:48.098Z,83.98
2023-04-18T08:10:14.904Z,82.88
2023-04-18T08:12:41.663Z,81.94
2023-04-18T08:15:09.010Z,82.03
2023-04-18T08:17:36.175Z,80.03
2023-04-18T08:20:07.452Z,79.43
2023-04-18T08:22:34.302Z,78.84
2023-04-18T08:27:33.535Z,79.12
2023-04-18T08:32:32.429Z,79.25
2023-04-18T08:34:59.233Z,79.15
2023-04-18T08:37:27.976Z,81.13
2023-04-18T08:39:54.719Z,80.44
2023-04-18T08:44:54.286Z,79.69
2023-04-18T08:47:21.011Z,77.99
2023-04-18T08:49:47.966Z,78.37
2023-04-18T08:52:15.413Z,78.58
2023-04-18T08:54:43.136Z,79.96
2023-04-18T08:57:12.765Z,78.40
2023-04-18T08:59:40.281Z,78.53
2023-04-18T09:02:09.164Z,79.43
2023-04-18T09:04:45.309Z,78.92
2023-04-18T09:07:14.106Z,78.58
2023-04-18T09:09:46.704Z,79.10
2023-04-18T09:12:18.392Z,80.28
2023-04-18T09:14:47.246Z,78.74
2023-04-18T09:17:18.429Z,78.39
2023-04-18T09:19:49.056Z,79.36
2023-04-18T09:22:16.612Z,79.76
2023-04-18T09:24:53.487Z,77.53
2023-04-18T09:27:22.586Z,76.88
2023-04-18T09:29:52.225Z,76.71
2023-04-18T09:32:25.345Z,77.69
2023-04-18T09:34:54.691Z,77.45
2023-04-18T09:37:22.012Z,76.16
2023-04-18T09:39:50.128Z,75.80
2023-04-18T09:42:17.609Z,74.10
2023-04-18T09:45:07.373Z,74.10
2023-04-18T09:47:36.619Z,74.94
2023-04-18T09:50:08.444Z,74.65
2023-04-18T09:52:37.444Z,75.04
2023-04-18T09:55:06.962Z,74.59
2023-04-18T10:00:20.314Z,73.17
2023-04-18T10:05:36.130Z,73.38
2023-04-18T10:08:03.892Z,73.15
2023-04-18T10:10:30.619Z,73.80
2023-04-18T10:12:59.799Z,74.21
2023-04-18T10:15:28.741Z,73.49
2023-04-18T10:18:04.504Z,73.71
2023-04-18T10:20:35.184Z,74.16
2023-04-18T10:23:31.094Z,72.94
2023-04-18T10:25:58.921Z,73.95
2023-04-18T10:28:27.670Z,72.13
2023-04-18T10:30:56.649Z,71.10
2023-04-18T10:36:09.567Z,70.91
2023-04-18T10:38:45.436Z,70.87
2023-04-18T10:41:16.240Z,70.21
2023-04-18T10:44:08.382Z,70.01
2023-04-18T10:46:51.297Z,70.68
2023-04-18T10:49:27.284Z,69.57
2023-04-18T10:51:58.599Z,69.98
2023-04-18T10:54:55.990Z,70.03
2023-04-18T10:57:23.693Z,71.82
2023-04-18T11:02:26.428Z,69.77
2023-04-18T11:04:55.269Z,70.53
2023-04-18T11:07:37.925Z,70.96
2023-04-18T11:10:06.872Z,70.94
2023-04-18T11:12:36.386Z,71.73
2023-04-18T11:15:10.997Z,70.20
2023-04-18T11:17:40.413Z,69.89
2023-04-18T11:20:16.027Z,69.95
2023-04-18T11:22:49.305Z,70.34
2023-04-18T11:25:17.707Z,70.57
2023-04-18T11:27:46.878Z,70.18
2023-04-18T11:30:15.667Z,70.71
2023-04-18T11:32:42.518Z,71.13
2023-04-18T11:35:11.193Z,71.32
2023-04-18T11:37:39.843Z,71.26
2023-04-18T11:40:09.554Z,69.67
2023-04-18T11:42:39.344Z,68.64
2023-04-18T11:45:13.244Z,68.32
2023-04-18T11:47:42.174Z,67.83
2023-04-18T11:50:12.354Z,68.74
2023-04-18T11:52:41.649Z,67.32
2023-04-18T11:55:14.009Z,68.90
2023-04-18T11:57:41.137Z,70.03
2023-04-18T12:00:09.391Z,69.75
2023-04-18T12:02:44.244Z,69.11
2023-04-18T12:05:15.007Z,66.73
2023-04-18T12:07:45.062Z,66.52
2023-04-18T12:12:54.316Z,65.99
2023-04-18T12:15:24.196Z,65.88
2023-04-18T12:17:53.674Z,65.18
2023-04-18T12:20:20.538Z,65.90
2023-04-18T12:22:49.743Z,64.85
2023-04-18T12:25:24.318Z,65.79
2023-04-18T12:28:00.363Z,66.31
2023-04-18T12:30:37.388Z,63.62
2023-04-18T12:33:05.081Z,64.69
2023-04-18T12:35:32.687Z,63.84
2023-04-18T12:43:07.301Z,63.26
2023-04-18T12:48:06.929Z,63.72
2023-04-18T12:50:34.028Z,64.17
2023-04-18T12:53:01.873Z,64.19
2023-04-18T12:55:29.388Z,63.83
2023-04-18T12:57:56.413Z,63.21
2023-04-18T13:00:28.288Z,63.57
2023-04-18T13:02:55.257Z,62.77
2023-04-18T13:05:24.829Z,62.05
2023-04-18T13:07:56.362Z,62.61
2023-04-18T13:10:28.792Z,61.92
2023-04-18T13:12:55.946Z,62.16
2023-04-18T13:15:24.082Z,61.16
2023-04-18T13:17:50.901Z,61.36
2023-04-18T13:20:17.643Z,60.52
2023-04-18T13:22:45.463Z,61.23
2023-04-18T13:25:12.170Z,61.77
2023-04-18T13:27:41.715Z,61.84
2023-04-18T13:30:11.846Z,61.12
2023-04-18T13:32:40.529Z,61.59
2023-04-18T13:35:09.056Z,62.02
2023-04-18T13:37:36.355Z,62.94
2023-04-18T13:40:05.709Z,61.67
2023-04-18T13:42:33.974Z,61.46
2023-04-18T13:45:00.690Z,61.90
2023-04-18T13:47:27.511Z,61.50
2023-04-18T13:49:54.607Z,62.04
2023-04-18T13:52:21.267Z,60.45
2023-04-18T13:54:48.614Z,61.11
2023-04-18T13:59:47.986Z,60.96
2023-04-18T14:02:15.063Z,60.93
2023-04-18T14:04:42.200Z,61.45
2023-04-18T14:07:09.386Z,61.22
2023-04-18T14:09:36.332Z,59.47
2023-04-18T14:12:03.072Z,60.08
2023-04-18T14:14:29.953Z,60.68
2023-04-18T14:16:56.800Z,59.19
2023-04-18T14:19:23.645Z,58.60
2023-04-18T14:21:50.307Z,59.78
2023-04-18T14:24:17.015Z,58.94
2023-04-18T14:26:44.185Z,59.10
2023-04-18T14:29:11.399Z,59.22
2023-04-18T14:31:38.469Z,58.98
2023-04-18T14:34:05.835Z,60.37
2023-04-18T14:36:32.890Z,60.50
2023-04-18T14:38:59.590Z,59.77
2023-04-18T14:41:26.464Z,60.95
2023-04-18T14:43:53.325Z,58.46
2023-04-18T14:46:21.351Z,59.98
2023-04-18T14:48:48.230Z,59.75
2023-04-18T14:51:16.866Z,60.96
2023-04-18T14:53:44.144Z,59.78
2023-04-18T14:56:10.947Z,59.30
2023-04-18T14:58:37.596Z,58.46
2023-04-18T15:01:04.698Z,60.08
2023-04-18T15:03:31.518Z,58.68
2023-04-18T15:05:58.409Z,57.60
2023-04-18T15:10:59.147Z,58.09
2023-04-18T15:13:25.835Z,58.39
2023-04-18T15:15:53.509Z,57.81
2023-04-18T15:18:20.651Z,58.15
2023-04-18T15:20:47.692Z,57.81
2023-04-18T15:23:15.096Z,57.98
2023-04-18T15:25:42.966Z,60.30
2023-04-18T15:28:09.732Z,61.19
2023-04-18T15:30:36.634Z,62.63
2023-04-18T15:33:03.512Z,63.25
2023-04-18T15:35:30.247Z,64.22
2023-04-18T15:37:57.717Z,62.88
2023-04-18T15:40:24.502Z,62.62
2023-04-18T15:45:27.126Z,63.41
2023-04-18T15:47:53.949Z,63.21
2023-04-18T15:50:20.870Z,62.99
2023-04-18T15:52:47.587Z,63.19
2023-04-18T15:55:14.398Z,63.24
2023-04-18T15:57:41.955Z,63.16
2023-04-18T16:00:17.595Z,62.39
2023-04-18T16:02:45.424Z,62.89
2023-04-18T16:05:13.190Z,63.52
2023-04-18T16:07:41.527Z,64.06
2023-04-18T16:10:10.850Z,63.18
2023-04-18T16:12:39.217Z,64.44
2023-04-18T16:15:07.276Z,63.65
2023-04-18T16:17:34.516Z,63.99
2023-04-18T16:20:01.558Z,64.79
2023-04-18T16:22:28.215Z,64.31
2023-04-18T16:24:55.016Z,64.83
2023-04-18T16:27:21.971Z,65.17
2023-04-18T16:29:48.593Z,65.34
2023-04-18T16:32:15.313Z,65.24
2023-04-18T16:34:41.923Z,65.51
2023-04-18T16:37:08.582Z,66.06
2023-04-18T16:39:35.317Z,65.47
2023-04-18T16:42:03.094Z,65.67
2023-04-18T16:47:01.886Z,65.95
2023-04-18T16:49:28.654Z,66.15
2023-04-18T16:51:55.351Z,65.72
2023-04-18T16:54:22.024Z,66.03
2023-04-18T16:56:48.896Z,66.29
2023-04-18T17:01:48.880Z,66.34
2023-04-18T17:04:15.964Z,66.68
2023-04-18T17:06:44.023Z,66.85
2023-04-18T17:09:13.847Z,67.01
2023-04-18T17:11:41.936Z,67.84
2023-04-18T17:14:09.108Z,68.68
2023-04-18T17:16:39.493Z,68.58
2023-04-18T17:19:06.525Z,69.32
2023-04-18T17:21:36.865Z,68.97
2023-04-18T17:24:06.012Z,70.11
2023-04-18T17:26:33.922Z,69.51
2023-04-18T17:29:01.497Z,69.23
2023-04-18T17:31:28.285Z,70.89
2023-04-18T17:33:54.979Z,70.16
2023-04-18T17:36:21.858Z,71.05
2023-04-18T17:38:51.545Z,71.12
2023-04-18T17:41:20.447Z,69.47
2023-04-18T17:43:48.782Z,69.04
2023-04-18T17:46:15.668Z,69.59
2023-04-18T17:48:46.719Z,70.17
2023-04-18T17:51:13.395Z,69.73
2023-04-18T17:53:40.119Z,70.36
2023-04-18T17:56:06.750Z,71.32
2023-04-18T17:58:33.474Z,71.76
2023-04-18T18:01:00.266Z,72.60
2023-04-18T18:03:27.357Z,72.53
2023-04-18T18:05:55.222Z,72.52
2023-04-18T18:08:22.591Z,73.45
2023-04-18T18:10:50.088Z,74.43
2023-04-18T18:13:16.897Z,74.35
2023-04-18T18:15:43.647Z,74.71
2023-04-18T18:18:10.398Z,75.01
2023-04-18T18:20:37.139Z,75.09
2023-04-18T18:23:03.850Z,74.51
2023-04-18T18:25:30.746Z,74.35
2023-04-18T18:27:57.430Z,74.80
2023-04-18T18:30:24.265Z,74.99
2023-04-18T18:32:51.461Z,74.77
2023-04-18T18:35:18.401Z,75.87
2023-04-18T18:37:45.218Z,75.38
2023-04-18T18:40:12.389Z,75.14
2023-04-18T18:45:18.066Z,75.20
2023-04-18T18:47:44.779Z,75.17
2023-04-18T18:50:11.480Z,75.22
2023-04-18T18:52:40.967Z,75.47
2023-04-18T18:55:08.209Z,75.26
2023-04-18T18:57:34.825Z,75.33
2023-04-18T19:00:01.495Z,76.17
2023-04-18T19:02:28.553Z,75.92
2023-04-18T19:04:55.548Z,76.28
2023-04-18T19:07:22.362Z,76.40
2023-04-18T19:09:49.657Z,75.96
2023-04-18T19:12:16.451Z,76.34
2023-04-18T19:17:18.756Z,76.72
2023-04-18T19:19:45.366Z,76.77
2023-04-18T19:22:12.030Z,77.02
2023-04-18T19:24:38.661Z,77.23
2023-04-18T19:27:05.361Z,77.67
2023-04-18T19:29:32.937Z,77.23
2023-04-18T19:31:59.821Z,77.49
2023-04-18T19:34:26.558Z,76.98
2023-04-18T19:36:53.178Z,77.18
2023-04-18T19:39:19.833Z,77.61
2023-04-18T19:41:47.195Z,78.01
2023-04-18T19:44:13.875Z,77.94
2023-04-18T19:46:40.536Z,77.21
2023-04-18T19:49:07.321Z,77.63
2023-04-18T19:51:33.980Z,77.66
2023-04-18T19:54:00.716Z,77.42
2023-04-18T19:58:58.961Z,78.95
2023-04-18T20:01:26.035Z,78.40
2023-04-18T20:03:54.221Z,79.29
2023-04-18T20:06:21.139Z,78.99
2023-04-18T20:08:47.848Z,79.77
2023-04-18T20:11:14.575Z,79.65
2023-04-18T20:13:41.761Z,79.07
2023-04-18T20:16:09.569Z,78.66
2023-04-18T20:18:41.123Z,78.75
2023-04-18T20:23:47.335Z,78.74
2023-04-18T20:26:14.069Z,78.67
2023-04-18T20:28:40.770Z,78.84
2023-04-18T20:31:07.481Z,79.15
2023-04-18T20:33:34.520Z,79.33
2023-04-18T20:36:01.179Z,79.19
2023-04-18T20:38:29.921Z,79.34
2023-04-18T20:40:59.032Z,78.72
2023-04-18T20:43:26.010Z,79.89
2023-04-18T20:45:53.937Z,79.74
2023-04-18T20:48:21.393Z,79.45
2023-04-18T20:50:51.685Z,79.11
2023-04-18T20:53:25.271Z,79.16
2023-04-18T20:55:51.951Z,78.89
2023-04-18T20:58:18.619Z,79.62
2023-04-18T21:00:45.249Z,79.42
2023-04-18T21:03:15.758Z,79.42
2023-04-18T21:05:43.772Z,79.74
2023-04-18T21:08:11.374Z,79.94
2023-04-18T21:10:38.148Z,80.15
2023-04-18T21:13:04.814Z,81.55
2023-04-18T21:18:02.781Z,80.83
2023-04-18T21:23:03.366Z,80.43
2023-04-18T21:25:30.028Z,80.33
2023-04-18T21:27:56.667Z,80.15
2023-04-18T21:30:23.513Z,80.40
2023-04-18T21:32:51.720Z,80.03
2023-04-18T21:35:19.820Z,80.27
2023-04-18T21:37:47.487Z,80.66
2023-04-18T21:40:14.731Z,80.50
2023-04-18T21:42:41.487Z,80.55
2023-04-18T21:45:09.664Z,80.97
2023-04-18T21:47:36.404Z,81.68
2023-04-18T21:50:03.836Z,82.37
2023-04-18T21:52:30.675Z,82.72
2023-04-18T21:54:57.351Z,82.53
2023-04-18T21:57:24.068Z,82.90
2023-04-18T21:59:50.719Z,82.05
2023-04-18T22:02:17.598Z,82.36
2023-04-18T22:04:44.395Z,82.28
2023-04-18T22:07:12.616Z,82.40
2023-04-18T22:09:39.375Z,82.29
2023-04-18T22:12:06.135Z,83.64
2023-04-18T22:14:32.783Z,82.76
2023-04-18T22:19:36.932Z,81.91
2023-04-18T22:22:03.589Z,82.17
2023-04-18T22:24:30.197Z,82.22
2023-04-18T22:26:56.832Z,83.16
2023-04-18T22:29:23.432Z,82.47
2023-04-18T22:31:50.067Z,82.40
2023-04-18T22:34:16.973Z,83.64
2023-04-18T22:36:45.746Z,83.36
2023-04-18T22:39:12.512Z,82.99
2023-04-18T22:41:39.193Z,83.16
2023-04-18T22:44:05.896Z,83.21
2023-04-18T22:46:33.151Z,82.90
2023-04-18T22:48:59.916Z,82.85
2023-04-18T22:51:28.857Z,83.77
2023-04-18T22:53:56.424Z,83.88
2023-04-18T22:56:23.551Z,83.78
2023-04-18T22:58:50.253Z,84.15
2023-04-18T23:01:16.991Z,84.89
2023-04-18T23:03:43.745Z,84.27
2023-04-18T23:06:10.613Z,84.29
2023-04-18T23:08:37.375Z,84.39
2023-04-18T23:13:37.787Z,83.18
2023-04-18T23:16:04.719Z,83.82
2023-04-18T23:18:31.410Z,84.67
2023-04-18T23:21:00.175Z,84.22
2023-04-18T23:23:27.030Z,82.19
2023-04-18T23:25:53.654Z,82.30
2023-04-18T23:28:20.484Z,82.23
2023-04-18T23:30:48.303Z,81.96
2023-04-18T23:33:14.941Z,82.75
2023-04-18T23:35:41.640Z,83.17
2023-04-18T23:40:43.002Z,82.98
2023-04-18T23:43:09.640Z,83.79
2023-04-18T23:45:36.838Z,83.95
2023-04-18T23:48:03.603Z,83.60
2023-04-18T23:50:30.348Z,83.50
2023-04-18T23:52:56.941Z,83.72
2023-04-18T23:55:23.588Z,84.37
2023-04-18T23:57:50.217Z,84.13
